Wellsboro, Indiana
Current Conditions -  °F | °C
As of 10:35 AM on Friday 28 Nov 2014 (Local Time) from KPPO Reporting Station
Broken Clouds Broken Clouds  
Wind Chill: 17°   Ceiling: 10000
Heat Index: 27°   Visibility: 10mi
Dew Point: 19°   Wind: 9mph
Humidity: 72%   Direction: 180°S
Pressure: 30.25"   Gusts: 18mph
Location:  41.4682°N, 86.7611°W
Report Text: KPPO 281635Z AUTO 18008G16KT 10SM SCT080 BKN100 M03/M07 A3025 RMK AO2 T10301074
Loading
Personal Weather Stations






























Interactive Weather Map New forecast layout! Learn more

10-Day Weather Forecast

Advertisements
Track Severe Weather on mobile